Time;durP1;ratioP1;P1;durP2;ratioP2;P2;SDS_P1;SDS_P2;PMS_P1;PMS_P2;Temp;Humidity;BMP_temperature;BMP_pressure;BME280_temperature;BME280_humidity;BME280_pressure;Samples;Min_cycle;Max_cycle;Signal;HPM_P1;HPM_P2
2022/11/27 00:01:41;;;;;;;24.17;16.77;;;;;;;5.81;100.00;101370.47;4990357;28;20233;-66
2022/11/27 00:04:10;;;;;;;20.27;15.73;;;;;;;5.94;100.00;101366.88;5021607;28;20598;-65
2022/11/27 00:06:39;;;;;;;20.43;15.87;;;;;;;5.78;100.00;101365.38;5010254;28;20187;-65
2022/11/27 00:09:10;;;;;;;24.00;15.63;;;;;;;5.78;100.00;101361.16;5012920;28;20323;-65
2022/11/27 00:11:42;;;;;;;20.57;14.77;;;;;;;5.49;100.00;101357.28;5009593;28;20232;-64
2022/11/27 00:14:17;;;;;;;26.93;16.07;;;;;;;5.64;100.00;101357.94;5007710;28;20671;-65
2022/11/27 00:16:43;;;;;;;22.97;16.73;;;;;;;5.64;100.00;101358.78;5011657;28;20228;-66
2022/11/27 00:19:11;;;;;;;21.30;15.10;;;;;;;5.60;100.00;101346.09;5021217;28;20598;-66
2022/11/27 00:21:37;;;;;;;22.63;14.30;;;;;;;5.60;100.00;101346.09;5016807;28;20309;-66
2022/11/27 00:24:06;;;;;;;18.23;13.60;;;;;;;5.50;100.00;101342.81;5028486;28;20262;-66
2022/11/27 00:26:32;;;;;;;15.70;13.13;;;;;;;5.61;100.00;101343.50;5029616;28;20242;-65
2022/11/27 00:28:58;;;;;;;17.33;13.10;;;;;;;5.76;100.00;101345.00;5027475;28;20182;-67
2022/11/27 00:31:27;;;;;;;18.27;12.83;;;;;;;5.84;100.00;101337.22;4990830;28;20232;-66
2022/11/27 00:34:01;;;;;;;14.90;12.33;;;;;;;5.60;100.00;101334.16;5023081;28;20627;-66
2022/11/27 00:36:33;;;;;;;17.37;13.27;;;;;;;5.79;100.00;101328.78;5010496;28;20251;-67
2022/11/27 00:39:00;;;;;;;13.77;11.50;;;;;;;5.96;100.00;101321.69;5030199;28;20258;-67
2022/11/27 00:41:28;;;;;;;16.20;12.83;;;;;;;5.99;100.00;101323.41;5001748;28;20228;-66
2022/11/27 00:43:54;;;;;;;20.70;13.13;;;;;;;5.97;100.00;101325.94;5012091;28;20200;-66
2022/11/27 00:46:29;;;;;;;19.37;13.20;;;;;;;5.97;100.00;101322.56;5028495;28;20271;-66
2022/11/27 00:48:57;;;;;;;16.77;12.57;;;;;;;6.07;100.00;101323.28;5005997;28;20188;-65
2022/11/27 00:51:26;;;;;;;20.77;12.83;;;;;;;6.19;100.00;101324.78;5008250;28;20225;-65
2022/11/27 00:53:53;;;;;;;17.60;12.40;;;;;;;5.94;100.00;101323.47;5029416;28;20188;-65
2022/11/27 00:56:22;;;;;;;14.27;12.00;;;;;;;6.15;100.00;101318.88;5027492;28;20212;-65
2022/11/27 00:58:47;;;;;;;18.63;12.30;;;;;;;6.25;100.00;101317.03;5023239;28;20505;-66
2022/11/27 01:01:16;;;;;;;22.93;13.57;;;;;;;6.25;100.00;101309.34;5002711;28;20237;-65
2022/11/27 01:03:42;;;;;;;22.93;12.50;;;;;;;6.35;100.00;101310.91;5029973;28;20188;-65
2022/11/27 01:06:07;;;;;;;18.23;13.40;;;;;;;6.19;100.00;101312.00;5013163;28;20320;-66
2022/11/27 01:08:33;;;;;;;18.77;13.23;;;;;;;6.24;100.00;101311.09;5012504;28;20190;-65
2022/11/27 01:10:59;;;;;;;17.43;12.23;;;;;;;6.00;100.00;101303.81;4999317;28;20241;-65
2022/11/27 01:13:26;;;;;;;18.00;12.73;;;;;;;6.20;100.00;101294.13;5010252;28;20274;-65
2022/11/27 01:16:07;;;;;;;19.73;12.37;;;;;;;6.08;100.00;101296.88;5029595;28;20228;-66
2022/11/27 01:18:34;;;;;;;18.90;12.63;;;;;;;6.16;100.00;101294.19;5029133;28;20197;-65
2022/11/27 01:21:00;;;;;;;20.90;13.07;;;;;;;6.35;100.00;101295.56;5001752;28;20218;-66
2022/11/27 01:23:26;;;;;;;18.60;12.47;;;;;;;6.34;100.00;101305.78;5030194;28;20273;-66
2022/11/27 01:25:52;;;;;;;23.53;12.70;;;;;;;6.43;100.00;101290.31;5030529;28;20644;-65
2022/11/27 01:28:19;;;;;;;20.23;12.57;;;;;;;6.45;100.00;101297.09;5013183;28;20201;-65
2022/11/27 01:30:45;;;;;;;19.20;13.67;;;;;;;6.25;100.00;101296.59;5018680;28;20627;-65
2022/11/27 01:33:10;;;;;;;23.30;12.60;;;;;;;6.09;100.00;101291.75;5029892;28;20269;-65
2022/11/27 01:35:36;;;;;;;20.17;12.80;;;;;;;6.12;100.00;101295.97;5030375;28;20198;-65
2022/11/27 01:38:01;;;;;;;19.10;13.37;;;;;;;6.21;100.00;101290.69;5030301;28;20223;-66
2022/11/27 01:40:27;;;;;;;22.00;13.10;;;;;;;6.18;100.00;101300.09;5016240;28;20319;-66
2022/11/27 01:42:52;;;;;;;19.17;13.33;;;;;;;6.37;100.00;101285.31;5020111;28;20461;-65
2022/11/27 01:45:20;;;;;;;20.10;13.23;;;;;;;6.52;100.00;101294.41;5033710;28;20189;-65
2022/11/27 01:47:53;;;;;;;17.80;13.93;;;;;;;6.33;100.00;101288.81;4999987;28;20186;-65
2022/11/27 01:50:23;;;;;;;16.63;12.10;;;;;;;6.53;100.00;101288.44;5017496;28;20178;-65
2022/11/27 01:52:52;;;;;;;22.27;14.03;;;;;;;6.51;100.00;101285.91;5032753;28;20179;-65
2022/11/27 01:55:24;;;;;;;17.80;14.10;;;;;;;6.48;100.00;101288.50;5010704;28;20202;-65
2022/11/27 01:58:06;;;;;;;20.33;14.03;;;;;;;6.29;100.00;101283.72;5003405;28;20186;-65
2022/11/27 02:00:31;;;;;;;19.33;14.33;;;;;;;6.28;100.00;101279.47;5021935;28;20693;-64
2022/11/27 02:02:57;;;;;;;22.57;14.70;;;;;;;6.28;100.00;101278.66;5015762;28;20182;-65
2022/11/27 02:05:27;;;;;;;20.77;13.63;;;;;;;6.32;100.00;101282.84;5033338;28;20657;-65
2022/11/27 02:07:55;;;;;;;21.03;13.80;;;;;;;6.45;100.00;101278.34;5033347;28;20190;-65
2022/11/27 02:10:31;;;;;;;21.77;14.73;;;;;;;6.33;100.00;101270.91;5022228;28;20226;-65
2022/11/27 02:13:25;;;;;;;19.63;13.97;;;;;;;6.34;100.00;101270.88;5015549;28;20193;-65
2022/11/27 02:15:51;;;;;;;20.70;14.83;;;;;;;6.18;100.00;101274.56;5018721;28;20201;-65
2022/11/27 02:18:28;;;;;;;21.20;13.60;;;;;;;6.27;100.00;101266.75;5033627;28;20656;-65
2022/11/27 02:21:22;;;;;;;23.60;15.53;;;;;;;6.23;100.00;101263.41;5022980;28;20232;-65
2022/11/27 02:24:36;;;;;;;18.27;14.33;;;;;;;6.12;100.00;101262.75;5016118;28;20180;-65
2022/11/27 02:27:15;;;;;;;20.13;14.23;;;;;;;6.18;100.00;101269.44;5003005;28;20217;-65
2022/11/27 02:29:46;;;;;;;22.00;14.27;;;;;;;6.30;100.00;101264.13;5032005;28;20181;-64
2022/11/27 02:32:38;;;;;;;22.30;14.50;;;;;;;6.35;100.00;101270.00;5005144;28;20232;-64
2022/11/27 02:35:16;;;;;;;20.23;14.93;;;;;;;6.13;100.00;101264.44;5033756;28;20206;-65
2022/11/27 02:37:47;;;;;;;22.03;13.93;;;;;;;6.14;100.00;101248.25;5015713;28;20223;-65
2022/11/27 02:40:30;;;;;;;20.07;14.90;;;;;;;5.96;100.00;101249.34;5006168;28;20276;-65
2022/11/27 02:43:08;;;;;;;25.97;14.57;;;;;;;6.12;100.00;101252.53;5019472;28;20185;-65
2022/11/27 02:45:38;;;;;;;21.83;14.87;;;;;;;6.11;100.00;101254.22;5033349;28;20186;-65
2022/11/27 02:48:05;;;;;;;24.63;14.93;;;;;;;5.97;100.00;101243.38;5032262;28;20211;-64
2022/11/27 02:50:33;;;;;;;21.00;14.93;;;;;;;5.93;100.00;101242.59;5004520;28;20216;-65
2022/11/27 02:53:03;;;;;;;20.77;15.77;;;;;;;6.01;100.00;101239.94;5011714;28;20186;-65
2022/11/27 02:55:33;;;;;;;21.43;14.37;;;;;;;6.07;100.00;101241.56;5014819;28;20555;-65
2022/11/27 02:58:01;;;;;;;22.83;16.07;;;;;;;6.02;100.00;101248.47;5031995;28;20178;-65
2022/11/27 03:00:29;;;;;;;21.23;17.23;;;;;;;5.94;100.00;101245.97;5004666;28;20307;-65
2022/11/27 03:02:59;;;;;;;22.00;15.97;;;;;;;5.86;100.00;101247.84;5011377;28;20592;-66
2022/11/27 03:05:29;;;;;;;22.20;16.20;;;;;;;5.66;100.00;101251.53;5031015;28;20626;-65
2022/11/27 03:08:09;;;;;;;19.77;14.73;;;;;;;5.71;100.00;101247.22;5014265;28;20550;-66
2022/11/27 03:10:42;;;;;;;21.10;13.97;;;;;;;5.71;100.00;101246.38;4992946;28;20739;-65
2022/11/27 03:13:08;;;;;;;22.93;15.40;;;;;;;5.46;100.00;101237.38;5014780;28;20639;-65
2022/11/27 03:16:15;;;;;;;19.43;11.80;;;;;;;5.29;100.00;101231.69;5031280;28;20197;-65
2022/11/27 03:18:55;;;;;;;18.63;12.97;;;;;;;5.31;100.00;101218.03;5019967;28;20190;-65
2022/11/27 03:21:29;;;;;;;21.17;13.77;;;;;;;5.33;100.00;101207.78;5003940;28;20668;-65
2022/11/27 03:23:56;;;;;;;20.20;12.47;;;;;;;5.27;100.00;101205.34;5014701;28;20640;-66
2022/11/27 03:26:22;;;;;;;22.03;13.17;;;;;;;5.06;100.00;101212.44;5013855;28;20189;-65
2022/11/27 03:28:49;;;;;;;17.20;10.43;;;;;;;4.98;100.00;101215.06;5032080;28;20548;-66
2022/11/27 03:31:15;;;;;;;15.50;10.23;;;;;;;4.92;100.00;101219.44;5003962;28;20231;-65
2022/11/27 03:33:40;;;;;;;14.57;10.13;;;;;;;4.75;100.00;101215.41;5032053;28;20644;-65
2022/11/27 03:36:12;;;;;;;21.73;11.07;;;;;;;4.78;100.00;101219.59;5011018;28;20675;-65
2022/11/27 03:38:38;;;;;;;19.27;10.73;;;;;;;4.76;100.00;101219.59;5023019;28;20182;-66
2022/11/27 03:41:19;;;;;;;17.60;11.40;;;;;;;4.85;100.00;101214.41;5021082;28;20282;-65
2022/11/27 03:44:10;;;;;;;20.87;11.00;;;;;;;4.73;100.00;101208.63;5014332;28;20234;-65
2022/11/27 03:46:57;;;;;;;14.73;10.90;;;;;;;4.62;100.00;101204.50;5031676;28;20487;-65
2022/11/27 03:49:28;;;;;;;15.87;9.93;;;;;;;4.60;100.00;101201.13;5029827;28;20191;-65
2022/11/27 03:52:21;;;;;;;13.43;10.23;;;;;;;4.44;100.00;101205.56;5015380;28;20604;-65
2022/11/27 03:55:08;;;;;;;19.73;10.57;;;;;;;4.39;100.00;101201.38;5031642;28;20216;-65
2022/11/27 03:57:39;;;;;;;13.80;9.57;;;;;;;4.52;100.00;101202.91;5030567;28;20187;-64
2022/11/27 04:00:07;;;;;;;18.30;10.53;;;;;;;4.44;100.00;101203.00;4993988;28;20178;-65
2022/11/27 04:02:45;;;;;;;21.13;10.17;;;;;;;4.42;100.00;101202.19;5010066;28;20283;-64
2022/11/27 04:05:12;;;;;;;15.83;10.00;;;;;;;4.50;100.00;101199.53;5029196;28;20201;-65
2022/11/27 04:07:37;;;;;;;18.60;10.53;;;;;;;4.36;100.00;101202.25;5031405;28;20251;-65
2022/11/27 04:10:04;;;;;;;20.77;11.03;;;;;;;4.41;100.00;101207.31;5025644;28;20222;-64
2022/11/27 04:12:29;;;;;;;18.27;11.10;;;;;;;4.48;100.00;101191.09;5030255;28;20196;-64
2022/11/27 04:14:54;;;;;;;15.57;10.97;;;;;;;4.18;100.00;101193.09;5031168;28;20186;-64
2022/11/27 04:17:19;;;;;;;17.73;10.80;;;;;;;4.17;100.00;101191.44;5019877;28;20221;-64
2022/11/27 04:19:45;;;;;;;17.80;10.67;;;;;;;4.08;100.00;101192.38;5031393;28;20189;-65
2022/11/27 04:22:10;;;;;;;16.53;10.87;;;;;;;3.96;100.00;101187.41;5003781;28;20233;-65
2022/11/27 04:24:35;;;;;;;25.07;12.03;;;;;;;3.76;100.00;101177.38;5031424;28;20203;-64
2022/11/27 04:27:00;;;;;;;18.50;11.83;;;;;;;3.71;100.00;101179.97;5012845;28;20182;-65
2022/11/27 04:29:26;;;;;;;19.90;11.87;;;;;;;3.66;100.00;101167.28;5030925;28;20177;-64
2022/11/27 04:31:51;;;;;;;22.07;12.90;;;;;;;3.51;100.00;101165.72;4983206;28;20222;-65
2022/11/27 04:34:16;;;;;;;20.30;12.07;;;;;;;3.50;100.00;101165.75;5031432;28;20209;-65
2022/11/27 04:36:42;;;;;;;19.30;12.77;;;;;;;3.58;100.00;101163.97;5030686;28;20289;-64
2022/11/27 04:39:07;;;;;;;20.63;13.07;;;;;;;3.43;100.00;101167.47;5031158;28;20214;-64
2022/11/27 04:41:32;;;;;;;24.27;12.40;;;;;;;3.40;100.00;101177.69;5020271;28;20256;-65
2022/11/27 04:43:58;;;;;;;16.73;11.53;;;;;;;3.38;100.00;101171.75;5030640;28;20190;-64
2022/11/27 04:46:23;;;;;;;18.73;12.87;;;;;;;3.45;100.00;101183.56;5010818;28;21147;-65
2022/11/27 04:48:48;;;;;;;20.60;12.53;;;;;;;3.34;100.00;101176.00;5019564;28;20190;-65
2022/11/27 04:51:13;;;;;;;23.47;12.83;;;;;;;3.30;100.00;101176.03;5020574;28;20225;-65
2022/11/27 04:53:39;;;;;;;22.93;13.40;;;;;;;3.33;100.00;101176.03;5030493;28;20583;-65
2022/11/27 04:56:04;;;;;;;22.13;13.37;;;;;;;3.20;100.00;101178.66;5031003;28;20708;-64
2022/11/27 04:58:30;;;;;;;24.13;14.53;;;;;;;3.21;100.00;101189.66;5030433;28;20182;-65
2022/11/27 05:00:55;;;;;;;25.83;14.30;;;;;;;3.17;100.00;101188.00;5020452;28;20729;-65
2022/11/27 05:03:20;;;;;;;21.83;13.87;;;;;;;3.12;100.00;101195.66;5030292;28;20192;-65
2022/11/27 05:05:54;;;;;;;25.23;13.70;;;;;;;3.09;100.00;101185.50;5030940;28;20200;-64
2022/11/27 05:08:19;;;;;;;20.43;13.50;;;;;;;3.00;100.00;101183.00;5030291;28;20189;-64
2022/11/27 05:10:59;;;;;;;21.67;13.83;;;;;;;2.86;100.00;101181.38;4984568;28;20249;-64
2022/11/27 05:13:25;;;;;;;21.80;12.40;;;;;;;2.96;100.00;101181.34;4987111;28;20591;-65
2022/11/27 05:15:50;;;;;;;20.67;13.07;;;;;;;2.89;100.00;101185.59;5002643;28;20290;-65
2022/11/27 05:18:15;;;;;;;24.00;13.23;;;;;;;2.90;100.00;101177.13;4994805;28;20261;-65
2022/11/27 05:20:41;;;;;;;23.00;13.93;;;;;;;2.90;100.00;101178.00;4990036;28;20226;-64
2022/11/27 05:23:06;;;;;;;25.40;13.57;;;;;;;2.81;100.00;101172.13;5005391;28;20214;-65
2022/11/27 05:25:31;;;;;;;31.67;14.97;;;;;;;2.66;100.00;101162.88;4994921;28;20267;-65
2022/11/27 05:27:57;;;;;;;22.13;12.27;;;;;;;2.74;100.00;101164.53;4994966;28;20242;-64
2022/11/27 05:30:22;;;;;;;17.83;12.97;;;;;;;2.76;100.00;101169.59;4987894;28;20219;-65
2022/11/27 05:32:47;;;;;;;22.30;13.87;;;;;;;2.70;100.00;101164.53;4990316;28;20180;-64
2022/11/27 05:35:12;;;;;;;22.33;13.90;;;;;;;2.72;100.00;101170.47;4986904;28;20666;-64
2022/11/27 05:37:38;;;;;;;25.33;14.30;;;;;;;2.82;100.00;101159.38;4993031;28;20178;-65
2022/11/27 05:40:05;;;;;;;20.80;13.90;;;;;;;2.65;100.00;101148.47;4985818;28;20616;-64
2022/11/27 05:42:30;;;;;;;18.50;13.23;;;;;;;2.69;100.00;101148.47;5009644;28;20199;-65
2022/11/27 05:44:55;;;;;;;27.80;12.90;;;;;;;2.65;100.00;101146.75;4991080;28;20252;-64
2022/11/27 05:47:21;;;;;;;29.57;14.57;;;;;;;2.57;100.00;101153.59;4991321;28;20175;-65
2022/11/27 05:49:46;;;;;;;21.47;14.97;;;;;;;2.45;100.00;101151.94;4994805;28;20192;-65
2022/11/27 05:52:11;;;;;;;23.00;14.00;;;;;;;2.63;100.00;101143.41;4984920;28;20220;-64
2022/11/27 05:54:36;;;;;;;22.63;14.07;;;;;;;2.59;100.00;101141.72;4993381;28;20186;-64
2022/11/27 05:57:02;;;;;;;24.63;14.77;;;;;;;2.71;100.00;101151.00;4993818;28;20557;-64
2022/11/27 05:59:27;;;;;;;21.10;15.10;;;;;;;2.76;100.00;101159.44;4994564;28;20273;-64
2022/11/27 06:01:52;;;;;;;25.97;14.50;;;;;;;2.85;100.00;101158.53;4998303;28;20673;-65
2022/11/27 06:04:18;;;;;;;22.00;14.73;;;;;;;2.76;100.00;101159.44;4995563;28;20274;-65
2022/11/27 06:06:43;;;;;;;23.43;14.63;;;;;;;2.79;100.00;101156.88;4992339;28;20554;-65
2022/11/27 06:09:08;;;;;;;23.53;15.63;;;;;;;2.88;100.00;101151.72;5005121;28;20368;-64
2022/11/27 06:11:34;;;;;;;24.20;15.23;;;;;;;2.95;100.00;101162.69;5022609;28;20265;-64
2022/11/27 06:13:59;;;;;;;24.20;15.57;;;;;;;3.06;100.00;101153.34;5033692;28;20220;-65
2022/11/27 06:16:24;;;;;;;21.40;14.50;;;;;;;3.18;100.00;101149.00;5033013;28;20247;-64
2022/11/27 06:18:54;;;;;;;23.77;14.20;;;;;;;2.99;100.00;101148.28;5024457;28;20543;-64
2022/11/27 06:21:23;;;;;;;21.60;14.20;;;;;;;3.16;100.00;101141.41;5018171;28;20281;-65
2022/11/27 06:23:54;;;;;;;25.30;15.60;;;;;;;3.01;100.00;101139.78;5032030;28;20186;-65
2022/11/27 06:26:22;;;;;;;21.83;14.67;;;;;;;3.06;100.00;101132.13;5030956;28;20171;-66
2022/11/27 06:28:48;;;;;;;20.07;14.27;;;;;;;3.08;100.00;101122.81;5015319;28;20298;-64
2022/11/27 06:31:20;;;;;;;31.73;15.07;;;;;;;3.12;100.00;101119.38;5028968;28;20224;-65
2022/11/27 06:33:47;;;;;;;27.43;15.73;;;;;;;3.23;100.00;101124.41;5038737;28;20187;-64
2022/11/27 06:36:12;;;;;;;23.60;15.30;;;;;;;3.27;100.00;101126.03;5032755;28;20198;-65
2022/11/27 06:38:38;;;;;;;29.00;16.70;;;;;;;3.30;100.00;101115.00;5015066;28;20668;-66
2022/11/27 06:41:11;;;;;;;23.23;17.43;;;;;;;3.20;100.00;101107.47;5030654;28;20225;-65
2022/11/27 06:43:37;;;;;;;24.37;15.50;;;;;;;3.06;100.00;101105.03;5036168;28;20324;-65
2022/11/27 06:46:04;;;;;;;30.67;17.50;;;;;;;2.77;100.00;101107.75;5015167;28;20268;-64
2022/11/27 06:48:31;;;;;;;27.33;16.70;;;;;;;2.77;100.00;101115.38;5032432;28;20196;-65
2022/11/27 06:51:01;;;;;;;31.43;17.37;;;;;;;2.82;100.00;101118.72;5012046;28;20225;-65
2022/11/27 06:53:27;;;;;;;26.67;17.07;;;;;;;2.93;100.00;101115.28;5020491;28;20182;-63
2022/11/27 06:55:52;;;;;;;28.93;18.30;;;;;;;3.01;100.00;101116.06;5014286;28;20213;-64
2022/11/27 06:58:17;;;;;;;26.70;18.63;;;;;;;2.97;100.00;101115.25;5031867;28;20186;-65
2022/11/27 07:00:43;;;;;;;31.70;18.43;;;;;;;3.16;100.00;101121.06;5025932;28;20220;-65
2022/11/27 07:03:08;;;;;;;27.37;17.90;;;;;;;3.28;100.00;101127.75;5037923;28;20183;-65
2022/11/27 07:05:35;;;;;;;31.90;18.07;;;;;;;2.97;100.00;101124.59;5032181;28;20654;-64
2022/11/27 07:08:00;;;;;;;31.97;17.37;;;;;;;2.99;100.00;101116.09;5013570;28;20190;-65
2022/11/27 07:10:25;;;;;;;28.93;17.33;;;;;;;3.04;100.00;101095.72;5025359;28;20241;-65
2022/11/27 07:12:51;;;;;;;41.60;17.70;;;;;;;2.88;100.00;101103.44;5027481;28;20629;-65
2022/11/27 07:15:16;;;;;;;35.20;19.17;;;;;;;2.97;100.00;101097.47;5025388;28;20253;-64
2022/11/27 07:17:41;;;;;;;28.90;17.53;;;;;;;3.01;100.00;101099.09;5030573;28;20209;-64
2022/11/27 07:20:07;;;;;;;33.73;18.27;;;;;;;3.10;100.00;101103.31;5022456;28;20704;-65
2022/11/27 07:22:32;;;;;;;60.80;19.47;;;;;;;3.09;100.00;101101.63;5046934;28;20182;-65
2022/11/27 07:24:58;;;;;;;49.87;19.50;;;;;;;3.20;100.00;101104.06;5032430;28;20225;-66
2022/11/27 07:27:23;;;;;;;29.97;17.63;;;;;;;2.92;100.00;101111.91;5031852;28;20182;-65
2022/11/27 07:29:48;;;;;;;66.87;18.90;;;;;;;3.19;100.00;101099.84;5030429;28;20170;-65
2022/11/27 07:32:14;;;;;;;58.37;19.23;;;;;;;3.11;100.00;101104.16;5034393;28;20261;-65
2022/11/27 07:34:39;;;;;;;29.97;18.23;;;;;;;2.91;100.00;101110.19;5031084;28;20193;-64
2022/11/27 07:37:04;;;;;;;28.57;18.20;;;;;;;3.03;100.00;101097.41;5012032;28;20209;-65
2022/11/27 07:39:29;;;;;;;31.33;17.13;;;;;;;2.94;100.00;101092.41;5029833;28;20228;-64
2022/11/27 07:41:55;;;;;;;29.50;17.27;;;;;;;2.98;100.00;101077.97;5033516;28;20566;-64
2022/11/27 07:44:23;;;;;;;28.70;17.80;;;;;;;2.91;100.00;101059.38;5032867;28;20228;-65
2022/11/27 07:46:48;;;;;;;63.30;18.83;;;;;;;2.98;100.00;101050.84;5031259;28;20260;-64
2022/11/27 07:49:14;;;;;;;40.03;19.13;;;;;;;2.96;100.00;101057.63;5031686;28;20261;-64
2022/11/27 07:51:39;;;;;;;43.00;19.90;;;;;;;3.10;100.00;101054.16;5033999;28;20304;-64
2022/11/27 07:54:04;;;;;;;37.97;19.43;;;;;;;3.11;100.00;101068.56;5035169;28;20178;-64
2022/11/27 07:56:30;;;;;;;43.43;20.13;;;;;;;3.14;100.00;101064.28;5013916;28;20237;-64
2022/11/27 07:58:56;;;;;;;40.20;18.53;;;;;;;3.13;100.00;101071.94;5031425;28;20174;-64
2022/11/27 08:01:22;;;;;;;29.27;17.03;;;;;;;3.04;100.00;101076.22;5015058;28;20245;-64
2022/11/27 08:03:47;;;;;;;29.37;18.73;;;;;;;3.11;100.00;101079.56;5024273;28;20186;-64
2022/11/27 08:06:24;;;;;;;24.97;18.50;;;;;;;3.05;100.00;101075.38;5031712;28;20218;-65
2022/11/27 08:08:50;;;;;;;26.67;18.47;;;;;;;3.23;100.00;101074.38;5028770;28;20366;-64
2022/11/27 08:11:31;;;;;;;26.03;17.93;;;;;;;3.45;100.00;101080.97;5035433;28;20232;-65
2022/11/27 08:14:05;;;;;;;30.40;19.03;;;;;;;3.42;100.00;101074.22;5015902;28;20180;-65
2022/11/27 08:16:32;;;;;;;28.30;18.30;;;;;;;3.58;100.00;101077.44;5016270;28;20345;-64
2022/11/27 08:18:58;;;;;;;25.83;17.83;;;;;;;3.59;100.00;101083.41;5042740;28;20285;-64
2022/11/27 08:21:23;;;;;;;27.20;19.03;;;;;;;3.77;100.00;101082.34;5031501;28;20316;-64
2022/11/27 08:23:49;;;;;;;30.63;19.97;;;;;;;3.57;100.00;101074.94;5036534;28;20305;-64
2022/11/27 08:26:14;;;;;;;31.73;19.93;;;;;;;3.48;100.00;101073.31;5046274;28;20257;-65
2022/11/27 08:28:40;;;;;;;27.13;19.87;;;;;;;3.38;100.00;101062.38;5030955;28;20707;-64
2022/11/27 08:31:09;;;;;;;35.23;20.97;;;;;;;3.34;100.00;101069.19;5014096;28;20743;-63
2022/11/27 08:33:35;;;;;;;31.60;20.30;;;;;;;3.44;100.00;101077.59;5013075;28;20181;-64
2022/11/27 08:36:00;;;;;;;33.77;21.30;;;;;;;3.70;100.00;101074.78;5029885;28;20288;-65
2022/11/27 08:38:26;;;;;;;41.47;20.33;;;;;;;3.69;100.00;101065.47;5028056;28;20269;-65
2022/11/27 08:41:01;;;;;;;44.20;21.17;;;;;;;3.53;100.00;101066.47;5027116;28;20220;-64
2022/11/27 08:43:27;;;;;;;44.87;21.50;;;;;;;3.53;100.00;101062.22;5021646;28;20201;-64
2022/11/27 08:45:53;;;;;;;33.33;20.73;;;;;;;3.34;100.00;101065.81;5046050;28;20650;-65
2022/11/27 08:48:20;;;;;;;32.97;21.87;;;;;;;3.46;100.00;101059.75;5009769;28;20275;-64
2022/11/27 08:50:46;;;;;;;34.77;22.60;;;;;;;3.41;100.00;101044.53;5037405;28;20294;-64
2022/11/27 08:53:12;;;;;;;29.33;21.13;;;;;;;3.54;100.00;101040.19;5017249;28;20629;-64
2022/11/27 08:55:37;;;;;;;35.27;21.87;;;;;;;3.82;100.00;101048.38;5034770;28;20200;-65
2022/11/27 08:58:03;;;;;;;31.07;22.40;;;;;;;3.86;100.00;101049.19;5033083;28;20183;-64
2022/11/27 09:00:29;;;;;;;37.20;21.80;;;;;;;3.61;100.00;101040.94;5027632;28;20250;-64
2022/11/27 09:02:54;;;;;;;33.00;23.13;;;;;;;3.64;100.00;101043.47;5026694;28;20194;-64
2022/11/27 09:05:20;;;;;;;33.17;21.60;;;;;;;3.69;100.00;101041.72;5033229;28;20197;-65
2022/11/27 09:07:45;;;;;;;34.10;22.57;;;;;;;3.65;100.00;101037.53;5034758;28;20229;-64
2022/11/27 09:10:11;;;;;;;32.43;20.33;;;;;;;3.71;100.00;101043.41;5025876;28;20222;-64
2022/11/27 09:12:36;;;;;;;35.77;21.00;;;;;;;3.92;100.00;101038.94;5048733;28;20188;-65
2022/11/27 09:15:01;;;;;;;33.23;22.27;;;;;;;4.04;100.00;101027.72;5034837;28;20175;-64
2022/11/27 09:17:27;;;;;;;26.23;19.77;;;;;;;4.20;100.00;101034.34;5050022;28;20213;-64
2022/11/27 09:19:52;;;;;;;30.97;19.73;;;;;;;4.01;100.00;101032.88;5034467;28;20233;-64
2022/11/27 09:22:17;;;;;;;29.70;19.57;;;;;;;4.01;100.00;101035.44;5039959;28;20222;-64
2022/11/27 09:24:43;;;;;;;26.33;19.47;;;;;;;4.01;100.00;101022.69;5049900;28;20657;-65
2022/11/27 09:27:08;;;;;;;31.33;19.23;;;;;;;4.02;100.00;101039.66;5034551;28;20239;-64
2022/11/27 09:29:34;;;;;;;27.10;19.03;;;;;;;3.91;100.00;101044.00;5034507;28;20178;-64
2022/11/27 09:32:00;;;;;;;29.10;19.87;;;;;;;3.90;100.00;101042.34;5039157;28;20715;-64
2022/11/27 09:34:25;;;;;;;28.53;19.47;;;;;;;3.76;100.00;101032.31;5034270;28;20174;-65
2022/11/27 09:36:51;;;;;;;31.50;20.37;;;;;;;4.08;100.00;101019.22;5023821;28;20687;-64
2022/11/27 09:39:18;;;;;;;29.07;20.03;;;;;;;4.03;100.00;101011.63;5034763;28;20703;-64
2022/11/27 09:41:56;;;;;;;26.77;18.63;;;;;;;3.81;100.00;101011.03;5016122;28;20231;-65
2022/11/27 09:44:29;;;;;;;25.23;17.83;;;;;;;3.97;100.00;101013.38;5013833;28;20673;-64
2022/11/27 09:46:58;;;;;;;26.93;17.50;;;;;;;4.02;100.00;101007.41;5013740;28;20278;-65
2022/11/27 09:49:30;;;;;;;25.83;17.67;;;;;;;4.16;100.00;101008.94;5021712;28;20194;-64
2022/11/27 09:52:03;;;;;;;21.17;16.80;;;;;;;4.14;100.00;101000.44;5038867;28;20265;-64
2022/11/27 09:54:53;;;;;;;22.30;16.80;;;;;;;4.01;100.00;101002.34;5047934;28;20574;-65
2022/11/27 09:57:29;;;;;;;23.47;16.80;;;;;;;4.16;100.00;100999.56;5043899;28;20211;-65
2022/11/27 10:00:00;;;;;;;24.13;17.70;;;;;;;4.06;100.00;100992.91;5027862;28;20188;-65
2022/11/27 10:02:34;;;;;;;22.00;17.10;;;;;;;4.11;100.00;100986.06;5025631;28;20226;-65
2022/11/27 10:05:03;;;;;;;23.77;16.50;;;;;;;4.16;100.00;100975.81;5016206;28;20237;-64
2022/11/27 10:07:38;;;;;;;29.70;18.07;;;;;;;4.25;100.00;100978.22;5015831;28;20716;-65
2022/11/27 10:10:27;;;;;;;30.17;19.73;;;;;;;4.02;100.00;100981.94;5005415;28;20247;-65
2022/11/27 10:13:10;;;;;;;27.10;18.67;;;;;;;4.08;100.00;100991.22;5037010;28;20653;-65
2022/11/27 10:16:05;;;;;;;24.27;18.73;;;;;;;4.27;100.00;100979.06;5011028;28;20645;-64
2022/11/27 10:18:50;;;;;;;26.40;19.23;;;;;;;3.97;100.00;100976.06;5001924;28;20228;-65
2022/11/27 10:21:39;;;;;;;25.77;18.90;;;;;;;3.77;100.00;100971.25;5014594;28;20230;-64
2022/11/27 10:24:18;;;;;;;23.30;16.73;;;;;;;4.03;100.00;100967.50;5036732;28;20647;-64
2022/11/27 10:26:49;;;;;;;26.97;17.17;;;;;;;4.12;100.00;100957.19;5048111;28;20588;-64
2022/11/27 10:29:26;;;;;;;22.17;16.67;;;;;;;4.08;100.00;100953.00;5013315;28;20191;-65
2022/11/27 10:32:00;;;;;;;23.13;17.23;;;;;;;3.94;100.00;100948.09;5035874;28;20267;-64
2022/11/27 10:34:47;;;;;;;25.70;17.97;;;;;;;3.67;100.00;100929.78;5031008;28;20273;-64
2022/11/27 10:37:12;;;;;;;25.77;17.30;;;;;;;3.37;100.00;100925.91;5031225;28;20219;-65
2022/11/27 10:39:43;;;;;;;24.10;18.83;;;;;;;3.31;100.00;100910.72;5033100;28;20584;-64
2022/11/27 10:42:27;;;;;;;27.10;18.73;;;;;;;3.39;100.00;100907.22;5038100;28;20232;-64
2022/11/27 10:44:59;;;;;;;25.23;18.10;;;;;;;3.45;100.00;100908.00;5032958;28;20591;-64
2022/11/27 10:47:27;;;;;;;28.77;19.30;;;;;;;3.44;100.00;100904.63;5032692;28;20221;-64
2022/11/27 10:49:52;;;;;;;26.70;17.97;;;;;;;3.44;100.00;100906.34;5011912;28;20182;-64
2022/11/27 10:52:19;;;;;;;29.57;20.00;;;;;;;3.39;100.00;100901.28;5018296;28;20374;-65
2022/11/27 10:54:57;;;;;;;30.63;18.50;;;;;;;3.54;100.00;100916.34;5031178;28;20182;-64
2022/11/27 10:57:38;;;;;;;31.73;20.57;;;;;;;3.62;100.00;100911.19;5014665;28;20229;-64
2022/11/27 11:00:19;;;;;;;28.87;18.23;;;;;;;3.65;100.00;100895.06;5023121;28;20224;-64
2022/11/27 11:02:45;;;;;;;31.97;20.63;;;;;;;3.64;100.00;100884.00;5045712;28;20194;-65
2022/11/27 11:05:17;;;;;;;31.03;20.30;;;;;;;3.84;100.00;100888.00;5032477;28;20201;-65
2022/11/27 11:07:56;;;;;;;34.23;20.13;;;;;;;3.85;100.00;100893.06;5047891;28;20494;-64
2022/11/27 11:10:34;;;;;;;27.77;19.73;;;;;;;4.03;100.00;100878.38;5024125;28;20227;-65
2022/11/27 11:13:16;;;;;;;31.37;19.53;;;;;;;4.46;100.00;100871.78;5016145;28;20252;-65
2022/11/27 11:16:10;;;;;;;32.17;19.90;;;;;;;4.32;100.00;100864.38;4991874;28;20216;-65
2022/11/27 11:18:45;;;;;;;30.90;19.00;;;;;;;4.32;100.00;100859.28;4991935;28;20595;-64
2022/11/27 11:21:22;;;;;;;30.07;18.53;;;;;;;4.13;100.00;100849.38;5010241;28;20316;-65